sensor_id;sensor_type;location;lat;lon;timestamp;P1;durP1;ratioP1;P2;durP2;ratioP2
16159;SDS011;8185;57.818;15.224;2024-03-08T00:02:02;3.72;;;2.80;;
16159;SDS011;8185;57.818;15.224;2024-03-08T00:04:30;5.47;;;2.70;;
16159;SDS011;8185;57.818;15.224;2024-03-08T00:06:58;3.83;;;2.53;;
16159;SDS011;8185;57.818;15.224;2024-03-08T00:09:26;4.43;;;2.75;;
16159;SDS011;8185;57.818;15.224;2024-03-08T00:11:54;3.72;;;3.03;;
16159;SDS011;8185;57.818;15.224;2024-03-08T00:14:22;7.97;;;5.43;;
16159;SDS011;8185;57.818;15.224;2024-03-08T00:16:50;8.00;;;5.70;;
16159;SDS011;8185;57.818;15.224;2024-03-08T00:19:19;6.80;;;5.40;;
16159;SDS011;8185;57.818;15.224;2024-03-08T00:21:48;5.50;;;3.67;;
16159;SDS011;8185;57.818;15.224;2024-03-08T00:24:16;4.45;;;3.08;;
16159;SDS011;8185;57.818;15.224;2024-03-08T00:26:44;4.40;;;2.80;;
16159;SDS011;8185;57.818;15.224;2024-03-08T00:29:13;5.00;;;3.17;;
16159;SDS011;8185;57.818;15.224;2024-03-08T00:31:40;4.55;;;2.90;;
16159;SDS011;8185;57.818;15.224;2024-03-08T00:34:09;4.80;;;3.03;;
16159;SDS011;8185;57.818;15.224;2024-03-08T00:36:39;3.83;;;2.80;;
16159;SDS011;8185;57.818;15.224;2024-03-08T00:39:07;3.55;;;2.70;;
16159;SDS011;8185;57.818;15.224;2024-03-08T00:41:35;5.55;;;2.80;;
16159;SDS011;8185;57.818;15.224;2024-03-08T00:44:03;4.83;;;2.90;;
16159;SDS011;8185;57.818;15.224;2024-03-08T00:46:32;4.18;;;3.08;;
16159;SDS011;8185;57.818;15.224;2024-03-08T00:49:00;4.00;;;2.70;;
16159;SDS011;8185;57.818;15.224;2024-03-08T00:51:28;3.08;;;2.58;;
16159;SDS011;8185;57.818;15.224;2024-03-08T00:53:58;3.60;;;2.90;;
16159;SDS011;8185;57.818;15.224;2024-03-08T00:56:26;4.50;;;2.88;;
16159;SDS011;8185;57.818;15.224;2024-03-08T00:58:54;4.10;;;2.30;;
16159;SDS011;8185;57.818;15.224;2024-03-08T01:01:22;3.53;;;2.55;;
16159;SDS011;8185;57.818;15.224;2024-03-08T01:03:51;3.40;;;2.50;;
16159;SDS011;8185;57.818;15.224;2024-03-08T01:06:19;3.00;;;2.70;;
16159;SDS011;8185;57.818;15.224;2024-03-08T01:08:48;3.53;;;2.40;;
16159;SDS011;8185;57.818;15.224;2024-03-08T01:11:18;4.23;;;2.40;;
16159;SDS011;8185;57.818;15.224;2024-03-08T01:13:46;4.57;;;2.50;;
16159;SDS011;8185;57.818;15.224;2024-03-08T01:16:15;3.35;;;2.60;;
16159;SDS011;8185;57.818;15.224;2024-03-08T01:18:43;2.97;;;2.30;;
16159;SDS011;8185;57.818;15.224;2024-03-08T01:21:12;2.83;;;2.50;;
16159;SDS011;8185;57.818;15.224;2024-03-08T01:23:40;5.07;;;2.33;;
16159;SDS011;8185;57.818;15.224;2024-03-08T01:26:08;3.47;;;2.20;;
16159;SDS011;8185;57.818;15.224;2024-03-08T01:28:39;4.10;;;2.50;;
16159;SDS011;8185;57.818;15.224;2024-03-08T01:31:06;4.07;;;2.67;;
16159;SDS011;8185;57.818;15.224;2024-03-08T01:33:35;4.33;;;2.60;;
16159;SDS011;8185;57.818;15.224;2024-03-08T01:36:03;3.90;;;2.60;;
16159;SDS011;8185;57.818;15.224;2024-03-08T01:38:31;3.78;;;2.47;;
16159;SDS011;8185;57.818;15.224;2024-03-08T01:40:58;4.47;;;2.60;;
16159;SDS011;8185;57.818;15.224;2024-03-08T01:43:27;5.55;;;2.78;;
16159;SDS011;8185;57.818;15.224;2024-03-08T01:45:58;2.90;;;2.60;;
16159;SDS011;8185;57.818;15.224;2024-03-08T01:48:26;3.53;;;2.47;;
16159;SDS011;8185;57.818;15.224;2024-03-08T01:50:56;3.70;;;2.47;;
16159;SDS011;8185;57.818;15.224;2024-03-08T01:53:25;4.03;;;2.60;;
16159;SDS011;8185;57.818;15.224;2024-03-08T01:55:54;3.78;;;2.42;;
16159;SDS011;8185;57.818;15.224;2024-03-08T01:58:24;3.38;;;2.45;;
16159;SDS011;8185;57.818;15.224;2024-03-08T02:00:54;3.30;;;2.22;;
16159;SDS011;8185;57.818;15.224;2024-03-08T02:03:25;3.95;;;2.90;;
16159;SDS011;8185;57.818;15.224;2024-03-08T02:05:54;3.47;;;2.80;;
16159;SDS011;8185;57.818;15.224;2024-03-08T02:08:22;4.00;;;2.92;;
16159;SDS011;8185;57.818;15.224;2024-03-08T02:10:51;4.28;;;2.88;;
16159;SDS011;8185;57.818;15.224;2024-03-08T02:13:18;4.03;;;2.63;;
16159;SDS011;8185;57.818;15.224;2024-03-08T02:15:52;5.57;;;2.97;;
16159;SDS011;8185;57.818;15.224;2024-03-08T02:18:22;3.60;;;3.10;;
16159;SDS011;8185;57.818;15.224;2024-03-08T02:20:52;5.88;;;3.10;;
16159;SDS011;8185;57.818;15.224;2024-03-08T02:23:21;5.28;;;3.67;;
16159;SDS011;8185;57.818;15.224;2024-03-08T02:25:50;4.78;;;3.25;;
16159;SDS011;8185;57.818;15.224;2024-03-08T02:28:18;4.20;;;3.20;;
16159;SDS011;8185;57.818;15.224;2024-03-08T02:30:47;4.70;;;3.22;;
16159;SDS011;8185;57.818;15.224;2024-03-08T02:33:17;4.07;;;3.30;;
16159;SDS011;8185;57.818;15.224;2024-03-08T02:35:45;4.47;;;3.13;;
16159;SDS011;8185;57.818;15.224;2024-03-08T02:38:15;3.35;;;2.80;;
16159;SDS011;8185;57.818;15.224;2024-03-08T02:40:45;4.05;;;3.20;;
16159;SDS011;8185;57.818;15.224;2024-03-08T02:43:13;5.33;;;3.30;;
16159;SDS011;8185;57.818;15.224;2024-03-08T02:45:43;4.80;;;3.28;;
16159;SDS011;8185;57.818;15.224;2024-03-08T02:48:12;4.55;;;3.63;;
16159;SDS011;8185;57.818;15.224;2024-03-08T02:50:42;5.05;;;4.00;;
16159;SDS011;8185;57.818;15.224;2024-03-08T02:53:10;5.35;;;4.10;;
16159;SDS011;8185;57.818;15.224;2024-03-08T02:55:41;4.90;;;3.90;;
16159;SDS011;8185;57.818;15.224;2024-03-08T02:58:09;5.00;;;3.50;;
16159;SDS011;8185;57.818;15.224;2024-03-08T03:00:37;6.90;;;3.83;;
16159;SDS011;8185;57.818;15.224;2024-03-08T03:03:07;5.32;;;3.78;;
16159;SDS011;8185;57.818;15.224;2024-03-08T03:05:34;6.35;;;3.60;;
16159;SDS011;8185;57.818;15.224;2024-03-08T03:08:02;7.20;;;3.90;;
16159;SDS011;8185;57.818;15.224;2024-03-08T03:10:34;4.93;;;3.45;;
16159;SDS011;8185;57.818;15.224;2024-03-08T03:13:04;6.50;;;4.10;;
16159;SDS011;8185;57.818;15.224;2024-03-08T03:15:32;9.25;;;3.40;;
16159;SDS011;8185;57.818;15.224;2024-03-08T03:18:01;5.82;;;3.25;;
16159;SDS011;8185;57.818;15.224;2024-03-08T03:20:28;6.53;;;3.50;;
16159;SDS011;8185;57.818;15.224;2024-03-08T03:22:58;5.40;;;3.50;;
16159;SDS011;8185;57.818;15.224;2024-03-08T03:25:27;4.97;;;3.60;;
16159;SDS011;8185;57.818;15.224;2024-03-08T03:28:00;5.15;;;3.00;;
16159;SDS011;8185;57.818;15.224;2024-03-08T03:30:30;3.43;;;2.80;;
16159;SDS011;8185;57.818;15.224;2024-03-08T03:32:59;3.60;;;2.77;;
16159;SDS011;8185;57.818;15.224;2024-03-08T03:35:28;5.40;;;2.85;;
16159;SDS011;8185;57.818;15.224;2024-03-08T03:37:55;4.82;;;3.08;;
16159;SDS011;8185;57.818;15.224;2024-03-08T03:40:34;4.35;;;2.88;;
16159;SDS011;8185;57.818;15.224;2024-03-08T03:43:03;4.88;;;3.50;;
16159;SDS011;8185;57.818;15.224;2024-03-08T03:45:32;7.25;;;3.47;;
16159;SDS011;8185;57.818;15.224;2024-03-08T03:48:01;5.05;;;3.20;;
16159;SDS011;8185;57.818;15.224;2024-03-08T03:50:30;5.65;;;3.35;;
16159;SDS011;8185;57.818;15.224;2024-03-08T03:52:59;5.23;;;3.60;;
16159;SDS011;8185;57.818;15.224;2024-03-08T03:55:28;5.88;;;3.90;;
16159;SDS011;8185;57.818;15.224;2024-03-08T03:57:56;5.27;;;3.30;;
16159;SDS011;8185;57.818;15.224;2024-03-08T04:00:25;5.57;;;3.53;;
16159;SDS011;8185;57.818;15.224;2024-03-08T04:02:55;6.40;;;3.97;;
16159;SDS011;8185;57.818;15.224;2024-03-08T04:05:26;4.35;;;3.20;;
16159;SDS011;8185;57.818;15.224;2024-03-08T04:07:54;4.20;;;3.00;;
16159;SDS011;8185;57.818;15.224;2024-03-08T04:10:23;5.32;;;3.22;;
16159;SDS011;8185;57.818;15.224;2024-03-08T04:12:50;4.85;;;3.20;;
16159;SDS011;8185;57.818;15.224;2024-03-08T04:15:18;3.55;;;3.13;;
16159;SDS011;8185;57.818;15.224;2024-03-08T04:17:46;3.63;;;3.25;;
16159;SDS011;8185;57.818;15.224;2024-03-08T04:20:16;5.13;;;3.53;;
16159;SDS011;8185;57.818;15.224;2024-03-08T04:22:44;5.05;;;3.17;;
16159;SDS011;8185;57.818;15.224;2024-03-08T04:25:15;4.63;;;3.15;;
16159;SDS011;8185;57.818;15.224;2024-03-08T04:27:43;5.75;;;3.45;;
16159;SDS011;8185;57.818;15.224;2024-03-08T04:30:13;4.20;;;3.47;;
16159;SDS011;8185;57.818;15.224;2024-03-08T04:32:40;5.65;;;3.58;;
16159;SDS011;8185;57.818;15.224;2024-03-08T04:35:09;5.32;;;3.17;;
16159;SDS011;8185;57.818;15.224;2024-03-08T04:37:39;3.85;;;2.95;;
16159;SDS011;8185;57.818;15.224;2024-03-08T04:40:07;5.57;;;3.28;;
16159;SDS011;8185;57.818;15.224;2024-03-08T04:42:35;5.18;;;3.15;;
16159;SDS011;8185;57.818;15.224;2024-03-08T04:45:06;4.55;;;3.35;;
16159;SDS011;8185;57.818;15.224;2024-03-08T04:47:37;3.90;;;3.33;;
16159;SDS011;8185;57.818;15.224;2024-03-08T04:50:05;4.23;;;3.33;;
16159;SDS011;8185;57.818;15.224;2024-03-08T04:52:34;3.92;;;3.20;;
16159;SDS011;8185;57.818;15.224;2024-03-08T04:55:04;4.22;;;3.13;;
16159;SDS011;8185;57.818;15.224;2024-03-08T04:57:33;5.38;;;3.58;;
16159;SDS011;8185;57.818;15.224;2024-03-08T05:00:01;4.75;;;3.10;;
16159;SDS011;8185;57.818;15.224;2024-03-08T05:02:29;4.10;;;3.30;;
16159;SDS011;8185;57.818;15.224;2024-03-08T05:04:58;4.05;;;3.38;;
16159;SDS011;8185;57.818;15.224;2024-03-08T05:07:26;4.38;;;3.17;;
16159;SDS011;8185;57.818;15.224;2024-03-08T05:09:54;4.63;;;3.00;;
16159;SDS011;8185;57.818;15.224;2024-03-08T05:12:23;4.85;;;3.30;;
16159;SDS011;8185;57.818;15.224;2024-03-08T05:14:52;4.68;;;3.15;;
16159;SDS011;8185;57.818;15.224;2024-03-08T05:17:21;5.10;;;3.65;;
16159;SDS011;8185;57.818;15.224;2024-03-08T05:19:49;4.15;;;3.15;;
16159;SDS011;8185;57.818;15.224;2024-03-08T05:22:17;5.07;;;3.20;;
16159;SDS011;8185;57.818;15.224;2024-03-08T05:24:45;4.38;;;2.78;;
16159;SDS011;8185;57.818;15.224;2024-03-08T05:27:13;4.45;;;3.03;;
16159;SDS011;8185;57.818;15.224;2024-03-08T05:29:43;3.95;;;3.17;;
16159;SDS011;8185;57.818;15.224;2024-03-08T05:32:11;6.07;;;3.38;;
16159;SDS011;8185;57.818;15.224;2024-03-08T05:34:40;4.68;;;3.10;;
16159;SDS011;8185;57.818;15.224;2024-03-08T05:37:08;5.57;;;3.03;;
16159;SDS011;8185;57.818;15.224;2024-03-08T05:39:37;4.95;;;3.38;;
16159;SDS011;8185;57.818;15.224;2024-03-08T05:42:07;5.03;;;3.45;;
16159;SDS011;8185;57.818;15.224;2024-03-08T05:44:35;5.10;;;3.70;;
16159;SDS011;8185;57.818;15.224;2024-03-08T05:47:05;5.05;;;3.65;;
16159;SDS011;8185;57.818;15.224;2024-03-08T05:49:33;4.68;;;3.67;;
16159;SDS011;8185;57.818;15.224;2024-03-08T05:52:01;5.88;;;3.80;;
16159;SDS011;8185;57.818;15.224;2024-03-08T05:54:30;5.63;;;3.97;;
16159;SDS011;8185;57.818;15.224;2024-03-08T05:56:58;4.93;;;3.58;;
16159;SDS011;8185;57.818;15.224;2024-03-08T05:59:27;5.00;;;3.30;;
16159;SDS011;8185;57.818;15.224;2024-03-08T06:01:54;5.72;;;3.60;;
16159;SDS011;8185;57.818;15.224;2024-03-08T06:04:24;6.28;;;3.30;;
16159;SDS011;8185;57.818;15.224;2024-03-08T06:06:53;4.90;;;3.20;;
16159;SDS011;8185;57.818;15.224;2024-03-08T06:09:22;5.03;;;3.42;;
16159;SDS011;8185;57.818;15.224;2024-03-08T06:11:50;4.70;;;3.13;;
16159;SDS011;8185;57.818;15.224;2024-03-08T06:14:20;5.85;;;3.13;;
16159;SDS011;8185;57.818;15.224;2024-03-08T06:16:49;6.63;;;3.22;;
16159;SDS011;8185;57.818;15.224;2024-03-08T06:19:17;4.20;;;3.13;;
16159;SDS011;8185;57.818;15.224;2024-03-08T06:21:46;4.40;;;3.30;;
16159;SDS011;8185;57.818;15.224;2024-03-08T06:24:14;6.10;;;3.23;;
16159;SDS011;8185;57.818;15.224;2024-03-08T06:26:43;3.70;;;3.30;;
16159;SDS011;8185;57.818;15.224;2024-03-08T06:29:12;4.78;;;3.22;;
16159;SDS011;8185;57.818;15.224;2024-03-08T06:31:41;4.80;;;3.25;;
16159;SDS011;8185;57.818;15.224;2024-03-08T06:34:09;4.40;;;3.50;;
16159;SDS011;8185;57.818;15.224;2024-03-08T06:36:37;5.70;;;3.25;;
16159;SDS011;8185;57.818;15.224;2024-03-08T06:39:07;4.50;;;3.58;;
16159;SDS011;8185;57.818;15.224;2024-03-08T06:41:35;4.30;;;3.72;;
16159;SDS011;8185;57.818;15.224;2024-03-08T06:44:03;4.80;;;4.03;;
16159;SDS011;8185;57.818;15.224;2024-03-08T06:46:34;6.00;;;3.60;;
16159;SDS011;8185;57.818;15.224;2024-03-08T06:49:02;5.50;;;4.00;;
16159;SDS011;8185;57.818;15.224;2024-03-08T06:51:30;4.90;;;3.70;;
16159;SDS011;8185;57.818;15.224;2024-03-08T06:53:58;6.80;;;4.28;;
16159;SDS011;8185;57.818;15.224;2024-03-08T06:56:27;5.38;;;3.45;;
16159;SDS011;8185;57.818;15.224;2024-03-08T06:58:56;6.35;;;3.70;;
16159;SDS011;8185;57.818;15.224;2024-03-08T07:01:24;7.00;;;4.03;;
16159;SDS011;8185;57.818;15.224;2024-03-08T07:03:52;6.03;;;4.50;;
16159;SDS011;8185;57.818;15.224;2024-03-08T07:06:24;4.60;;;4.00;;
16159;SDS011;8185;57.818;15.224;2024-03-08T07:08:52;5.43;;;3.70;;
16159;SDS011;8185;57.818;15.224;2024-03-08T07:11:20;5.40;;;3.72;;
16159;SDS011;8185;57.818;15.224;2024-03-08T07:13:49;4.90;;;4.00;;
16159;SDS011;8185;57.818;15.224;2024-03-08T07:16:18;5.15;;;3.78;;
16159;SDS011;8185;57.818;15.224;2024-03-08T07:18:47;7.15;;;4.70;;
16159;SDS011;8185;57.818;15.224;2024-03-08T07:21:18;4.93;;;4.07;;
16159;SDS011;8185;57.818;15.224;2024-03-08T07:23:46;5.45;;;4.90;;
16159;SDS011;8185;57.818;15.224;2024-03-08T07:26:28;8.20;;;7.40;;
16159;SDS011;8185;57.818;15.224;2024-03-08T07:28:59;6.97;;;6.27;;
16159;SDS011;8185;57.818;15.224;2024-03-08T07:31:26;6.73;;;6.10;;
16159;SDS011;8185;57.818;15.224;2024-03-08T07:34:03;7.17;;;5.80;;
16159;SDS011;8185;57.818;15.224;2024-03-08T07:36:33;6.03;;;5.43;;
16159;SDS011;8185;57.818;15.224;2024-03-08T07:39:02;6.40;;;5.50;;
16159;SDS011;8185;57.818;15.224;2024-03-08T07:41:31;5.07;;;4.60;;
16159;SDS011;8185;57.818;15.224;2024-03-08T07:44:04;4.17;;;3.77;;
16159;SDS011;8185;57.818;15.224;2024-03-08T07:46:31;5.07;;;4.67;;
16159;SDS011;8185;57.818;15.224;2024-03-08T07:49:00;5.07;;;4.40;;
16159;SDS011;8185;57.818;15.224;2024-03-08T07:51:28;5.60;;;5.00;;
16159;SDS011;8185;57.818;15.224;2024-03-08T07:53:56;5.23;;;4.73;;
16159;SDS011;8185;57.818;15.224;2024-03-08T07:56:24;4.70;;;4.30;;
16159;SDS011;8185;57.818;15.224;2024-03-08T07:58:52;7.23;;;4.60;;
16159;SDS011;8185;57.818;15.224;2024-03-08T08:01:21;6.43;;;4.50;;
16159;SDS011;8185;57.818;15.224;2024-03-08T08:03:50;6.73;;;4.40;;
16159;SDS011;8185;57.818;15.224;2024-03-08T08:06:18;5.30;;;4.40;;
16159;SDS011;8185;57.818;15.224;2024-03-08T08:08:46;4.70;;;4.30;;
16159;SDS011;8185;57.818;15.224;2024-03-08T08:11:14;7.37;;;4.30;;
16159;SDS011;8185;57.818;15.224;2024-03-08T08:13:43;6.73;;;4.57;;
16159;SDS011;8185;57.818;15.224;2024-03-08T08:16:11;5.07;;;4.07;;
16159;SDS011;8185;57.818;15.224;2024-03-08T08:18:41;4.30;;;3.90;;
16159;SDS011;8185;57.818;15.224;2024-03-08T08:21:10;4.63;;;4.23;;
16159;SDS011;8185;57.818;15.224;2024-03-08T08:23:38;6.87;;;5.80;;
16159;SDS011;8185;57.818;15.224;2024-03-08T08:26:06;7.03;;;6.30;;
16159;SDS011;8185;57.818;15.224;2024-03-08T08:28:34;5.93;;;5.37;;
16159;SDS011;8185;57.818;15.224;2024-03-08T08:31:02;7.07;;;6.07;;
16159;SDS011;8185;57.818;15.224;2024-03-08T08:33:31;5.90;;;5.10;;
16159;SDS011;8185;57.818;15.224;2024-03-08T08:36:03;6.57;;;5.97;;
16159;SDS011;8185;57.818;15.224;2024-03-08T08:38:32;6.53;;;5.70;;
16159;SDS011;8185;57.818;15.224;2024-03-08T08:41:00;5.90;;;5.07;;
16159;SDS011;8185;57.818;15.224;2024-03-08T08:43:29;7.30;;;5.50;;
16159;SDS011;8185;57.818;15.224;2024-03-08T08:45:59;5.67;;;5.10;;
16159;SDS011;8185;57.818;15.224;2024-03-08T08:48:27;4.40;;;4.00;;
16159;SDS011;8185;57.818;15.224;2024-03-08T08:50:56;6.90;;;4.33;;
16159;SDS011;8185;57.818;15.224;2024-03-08T08:53:25;5.07;;;4.10;;
16159;SDS011;8185;57.818;15.224;2024-03-08T08:55:54;5.43;;;4.13;;
16159;SDS011;8185;57.818;15.224;2024-03-08T09:10:43;3.50;;;3.03;;
16159;SDS011;8185;57.818;15.224;2024-03-08T09:13:12;2.63;;;2.30;;
16159;SDS011;8185;57.818;15.224;2024-03-08T09:15:39;2.47;;;1.90;;
16159;SDS011;8185;57.818;15.224;2024-03-08T09:20:35;2.63;;;1.88;;
16159;SDS011;8185;57.818;15.224;2024-03-08T09:23:04;3.50;;;2.60;;
16159;SDS011;8185;57.818;15.224;2024-03-08T09:25:31;3.72;;;2.35;;
16159;SDS011;8185;57.818;15.224;2024-03-08T09:28:01;3.17;;;2.40;;
16159;SDS011;8185;57.818;15.224;2024-03-08T09:30:29;2.50;;;2.20;;
16159;SDS011;8185;57.818;15.224;2024-03-08T09:32:57;2.88;;;2.20;;
16159;SDS011;8185;57.818;15.224;2024-03-08T09:35:25;2.80;;;1.92;;
16159;SDS011;8185;57.818;15.224;2024-03-08T09:37:53;2.33;;;1.98;;
16159;SDS011;8185;57.818;15.224;2024-03-08T09:40:22;3.28;;;1.73;;
16159;SDS011;8185;57.818;15.224;2024-03-08T09:42:50;2.25;;;1.42;;
16159;SDS011;8185;57.818;15.224;2024-03-08T09:45:23;1.90;;;1.43;;
16159;SDS011;8185;57.818;15.224;2024-03-08T09:47:53;1.88;;;1.42;;
16159;SDS011;8185;57.818;15.224;2024-03-08T09:50:21;2.80;;;1.63;;
16159;SDS011;8185;57.818;15.224;2024-03-08T09:52:52;1.95;;;1.30;;
16159;SDS011;8185;57.818;15.224;2024-03-08T09:55:23;2.03;;;1.33;;
16159;SDS011;8185;57.818;15.224;2024-03-08T09:57:57;1.55;;;1.40;;
16159;SDS011;8185;57.818;15.224;2024-03-08T10:00:46;1.92;;;1.15;;
16159;SDS011;8185;57.818;15.224;2024-03-08T10:03:14;2.03;;;1.10;;
16159;SDS011;8185;57.818;15.224;2024-03-08T10:05:42;1.63;;;1.10;;
16159;SDS011;8185;57.818;15.224;2024-03-08T10:08:10;1.77;;;1.17;;
16159;SDS011;8185;57.818;15.224;2024-03-08T10:10:38;2.10;;;1.20;;
16159;SDS011;8185;57.818;15.224;2024-03-08T10:13:07;3.10;;;1.10;;
16159;SDS011;8185;57.818;15.224;2024-03-08T10:15:36;1.83;;;1.00;;
16159;SDS011;8185;57.818;15.224;2024-03-08T10:18:07;1.50;;;1.00;;
16159;SDS011;8185;57.818;15.224;2024-03-08T10:20:36;1.83;;;1.00;;
16159;SDS011;8185;57.818;15.224;2024-03-08T10:23:04;2.45;;;1.00;;
16159;SDS011;8185;57.818;15.224;2024-03-08T10:25:32;1.52;;;1.00;;
16159;SDS011;8185;57.818;15.224;2024-03-08T10:28:02;1.30;;;0.90;;
16159;SDS011;8185;57.818;15.224;2024-03-08T10:30:31;1.35;;;1.00;;
16159;SDS011;8185;57.818;15.224;2024-03-08T10:32:59;2.60;;;1.02;;
16159;SDS011;8185;57.818;15.224;2024-03-08T10:35:32;1.13;;;0.90;;
16159;SDS011;8185;57.818;15.224;2024-03-08T10:37:59;1.35;;;0.98;;
16159;SDS011;8185;57.818;15.224;2024-03-08T10:40:33;2.10;;;0.90;;
16159;SDS011;8185;57.818;15.224;2024-03-08T10:43:02;1.75;;;0.90;;
16159;SDS011;8185;57.818;15.224;2024-03-08T10:45:31;1.52;;;0.95;;
16159;SDS011;8185;57.818;15.224;2024-03-08T10:48:04;1.52;;;1.10;;
16159;SDS011;8185;57.818;15.224;2024-03-08T10:50:45;1.60;;;0.90;;
16159;SDS011;8185;57.818;15.224;2024-03-08T10:53:16;1.23;;;0.90;;
16159;SDS011;8185;57.818;15.224;2024-03-08T10:55:47;1.00;;;0.80;;
16159;SDS011;8185;57.818;15.224;2024-03-08T10:58:19;1.60;;;1.30;;
16159;SDS011;8185;57.818;15.224;2024-03-08T11:00:49;1.20;;;1.00;;
16159;SDS011;8185;57.818;15.224;2024-03-08T11:06:21;1.50;;;0.80;;
16159;SDS011;8185;57.818;15.224;2024-03-08T11:08:57;1.65;;;0.90;;
16159;SDS011;8185;57.818;15.224;2024-03-08T11:11:27;1.27;;;0.80;;
16159;SDS011;8185;57.818;15.224;2024-03-08T11:13:57;2.25;;;0.88;;
16159;SDS011;8185;57.818;15.224;2024-03-08T11:16:39;1.20;;;1.05;;
16159;SDS011;8185;57.818;15.224;2024-03-08T11:19:26;1.50;;;0.70;;
16159;SDS011;8185;57.818;15.224;2024-03-08T11:21:59;1.00;;;0.85;;
16159;SDS011;8185;57.818;15.224;2024-03-08T11:32:09;1.40;;;0.80;;
16159;SDS011;8185;57.818;15.224;2024-03-08T11:39:45;3.40;;;0.70;;
16159;SDS011;8185;57.818;15.224;2024-03-08T11:42:14;1.30;;;0.60;;
16159;SDS011;8185;57.818;15.224;2024-03-08T12:34:42;1.00;;;0.60;;
16159;SDS011;8185;57.818;15.224;2024-03-08T14:33:45;2.00;;;1.00;;
16159;SDS011;8185;57.818;15.224;2024-03-08T14:36:14;1.92;;;0.90;;
16159;SDS011;8185;57.818;15.224;2024-03-08T14:38:43;1.35;;;0.68;;
16159;SDS011;8185;57.818;15.224;2024-03-08T14:41:13;1.70;;;0.90;;
16159;SDS011;8185;57.818;15.224;2024-03-08T14:43:42;1.33;;;0.70;;
16159;SDS011;8185;57.818;15.224;2024-03-08T14:46:13;1.40;;;0.87;;
16159;SDS011;8185;57.818;15.224;2024-03-08T14:48:43;2.92;;;0.90;;
16159;SDS011;8185;57.818;15.224;2024-03-08T14:51:11;1.00;;;0.90;;
16159;SDS011;8185;57.818;15.224;2024-03-08T14:53:40;1.70;;;1.00;;
16159;SDS011;8185;57.818;15.224;2024-03-08T14:56:11;0.95;;;0.80;;
16159;SDS011;8185;57.818;15.224;2024-03-08T14:58:42;0.98;;;0.85;;
16159;SDS011;8185;57.818;15.224;2024-03-08T15:01:10;1.63;;;0.77;;
16159;SDS011;8185;57.818;15.224;2024-03-08T15:03:40;0.77;;;0.77;;
16159;SDS011;8185;57.818;15.224;2024-03-08T15:06:09;1.40;;;0.93;;
16159;SDS011;8185;57.818;15.224;2024-03-08T15:08:38;1.20;;;0.90;;
16159;SDS011;8185;57.818;15.224;2024-03-08T15:11:06;1.40;;;0.90;;
16159;SDS011;8185;57.818;15.224;2024-03-08T15:13:34;1.30;;;0.90;;
16159;SDS011;8185;57.818;15.224;2024-03-08T15:16:08;1.83;;;0.85;;
16159;SDS011;8185;57.818;15.224;2024-03-08T15:18:44;2.17;;;1.02;;
16159;SDS011;8185;57.818;15.224;2024-03-08T15:21:14;1.80;;;1.00;;
16159;SDS011;8185;57.818;15.224;2024-03-08T15:23:45;1.40;;;1.20;;
16159;SDS011;8185;57.818;15.224;2024-03-08T15:26:16;1.00;;;0.90;;
16159;SDS011;8185;57.818;15.224;2024-03-08T15:28:45;0.80;;;0.80;;
16159;SDS011;8185;57.818;15.224;2024-03-08T15:31:18;2.55;;;0.88;;
16159;SDS011;8185;57.818;15.224;2024-03-08T15:33:49;0.98;;;0.90;;
16159;SDS011;8185;57.818;15.224;2024-03-08T15:36:18;0.85;;;0.85;;
16159;SDS011;8185;57.818;15.224;2024-03-08T15:38:47;1.20;;;1.10;;
16159;SDS011;8185;57.818;15.224;2024-03-08T15:41:17;1.23;;;1.13;;
16159;SDS011;8185;57.818;15.224;2024-03-08T15:43:46;1.37;;;0.97;;
16159;SDS011;8185;57.818;15.224;2024-03-08T15:46:15;1.00;;;0.90;;
16159;SDS011;8185;57.818;15.224;2024-03-08T15:51:12;1.97;;;1.10;;
16159;SDS011;8185;57.818;15.224;2024-03-08T15:56:10;1.50;;;1.00;;
16159;SDS011;8185;57.818;15.224;2024-03-08T15:58:38;2.33;;;1.00;;
16159;SDS011;8185;57.818;15.224;2024-03-08T16:01:06;1.70;;;0.90;;
16159;SDS011;8185;57.818;15.224;2024-03-08T16:03:36;2.07;;;0.70;;
16159;SDS011;8185;57.818;15.224;2024-03-08T16:06:05;2.97;;;1.00;;
16159;SDS011;8185;57.818;15.224;2024-03-08T16:08:34;2.57;;;0.80;;
16159;SDS011;8185;57.818;15.224;2024-03-08T16:11:05;0.93;;;0.70;;
16159;SDS011;8185;57.818;15.224;2024-03-08T16:13:33;1.43;;;0.80;;
16159;SDS011;8185;57.818;15.224;2024-03-08T16:16:04;1.43;;;0.93;;
16159;SDS011;8185;57.818;15.224;2024-03-08T16:18:32;4.63;;;0.93;;
16159;SDS011;8185;57.818;15.224;2024-03-08T16:21:03;0.93;;;0.70;;
16159;SDS011;8185;57.818;15.224;2024-03-08T16:23:34;2.40;;;1.00;;
16159;SDS011;8185;57.818;15.224;2024-03-08T16:26:03;1.43;;;0.90;;
16159;SDS011;8185;57.818;15.224;2024-03-08T16:28:32;3.40;;;1.23;;
16159;SDS011;8185;57.818;15.224;2024-03-08T16:33:36;3.47;;;1.38;;
16159;SDS011;8185;57.818;15.224;2024-03-08T16:36:05;1.90;;;1.10;;
16159;SDS011;8185;57.818;15.224;2024-03-08T16:38:34;2.27;;;1.07;;
16159;SDS011;8185;57.818;15.224;2024-03-08T18:08:02;4.00;;;2.23;;
16159;SDS011;8185;57.818;15.224;2024-03-08T18:10:32;3.72;;;1.65;;
16159;SDS011;8185;57.818;15.224;2024-03-08T18:13:01;2.83;;;1.70;;
16159;SDS011;8185;57.818;15.224;2024-03-08T18:20:35;3.03;;;2.23;;
16159;SDS011;8185;57.818;15.224;2024-03-08T18:23:09;2.13;;;1.73;;
16159;SDS011;8185;57.818;15.224;2024-03-08T18:25:38;1.70;;;1.50;;
16159;SDS011;8185;57.818;15.224;2024-03-08T18:28:08;2.03;;;1.80;;
16159;SDS011;8185;57.818;15.224;2024-03-08T18:30:39;2.50;;;1.40;;
16159;SDS011;8185;57.818;15.224;2024-03-08T18:33:09;5.03;;;1.60;;
16159;SDS011;8185;57.818;15.224;2024-03-08T18:35:38;2.05;;;1.83;;
16159;SDS011;8185;57.818;15.224;2024-03-08T18:38:06;1.85;;;1.73;;
16159;SDS011;8185;57.818;15.224;2024-03-08T18:40:34;2.00;;;1.70;;
16159;SDS011;8185;57.818;15.224;2024-03-08T18:43:04;1.90;;;1.70;;
16159;SDS011;8185;57.818;15.224;2024-03-08T18:45:33;3.53;;;1.70;;
16159;SDS011;8185;57.818;15.224;2024-03-08T18:48:01;2.30;;;1.73;;
16159;SDS011;8185;57.818;15.224;2024-03-08T18:50:33;2.00;;;1.50;;
16159;SDS011;8185;57.818;15.224;2024-03-08T18:53:01;3.00;;;1.80;;
16159;SDS011;8185;57.818;15.224;2024-03-08T18:55:30;2.47;;;1.73;;
16159;SDS011;8185;57.818;15.224;2024-03-08T18:57:58;2.50;;;1.83;;
16159;SDS011;8185;57.818;15.224;2024-03-08T19:00:28;3.35;;;1.73;;
16159;SDS011;8185;57.818;15.224;2024-03-08T19:03:01;2.83;;;1.88;;
16159;SDS011;8185;57.818;15.224;2024-03-08T19:05:37;2.40;;;2.03;;
16159;SDS011;8185;57.818;15.224;2024-03-08T19:08:06;2.50;;;1.90;;
16159;SDS011;8185;57.818;15.224;2024-03-08T19:10:34;4.10;;;2.10;;
16159;SDS011;8185;57.818;15.224;2024-03-08T19:13:04;2.90;;;2.10;;
16159;SDS011;8185;57.818;15.224;2024-03-08T19:15:35;3.50;;;1.80;;
16159;SDS011;8185;57.818;15.224;2024-03-08T19:18:04;2.78;;;1.92;;
16159;SDS011;8185;57.818;15.224;2024-03-08T19:20:33;3.45;;;1.98;;
16159;SDS011;8185;57.818;15.224;2024-03-08T19:23:03;2.28;;;1.80;;
16159;SDS011;8185;57.818;15.224;2024-03-08T19:25:35;3.22;;;1.70;;
16159;SDS011;8185;57.818;15.224;2024-03-08T19:28:07;2.50;;;1.70;;
16159;SDS011;8185;57.818;15.224;2024-03-08T19:30:36;2.72;;;1.92;;
16159;SDS011;8185;57.818;15.224;2024-03-08T19:33:06;2.17;;;1.90;;
16159;SDS011;8185;57.818;15.224;2024-03-08T19:35:37;2.00;;;1.70;;
16159;SDS011;8185;57.818;15.224;2024-03-08T19:38:06;2.47;;;2.00;;
16159;SDS011;8185;57.818;15.224;2024-03-08T19:40:35;2.45;;;1.88;;
16159;SDS011;8185;57.818;15.224;2024-03-08T19:43:06;3.67;;;2.13;;
16159;SDS011;8185;57.818;15.224;2024-03-08T19:45:36;3.08;;;2.03;;
16159;SDS011;8185;57.818;15.224;2024-03-08T19:48:06;4.93;;;2.15;;
16159;SDS011;8185;57.818;15.224;2024-03-08T19:50:35;2.30;;;1.75;;
16159;SDS011;8185;57.818;15.224;2024-03-08T19:53:09;3.75;;;2.20;;
16159;SDS011;8185;57.818;15.224;2024-03-08T19:55:36;3.22;;;2.20;;
16159;SDS011;8185;57.818;15.224;2024-03-08T19:58:06;3.30;;;2.40;;